• Join FlightAware (Why Join?)
  • Login
  • US Flag 
12:30PM EST


 

Airport Tracker/Info


-or-


 

Live Flight TrackerFlight Track Log ✈ DAL1214 ✈ 03-Dec-2013 ✈ KOMA - KMSP

Flight Track Log - Related Links

Times and Time Zones

All times are in EST time to prevent confusion due to time zone crossing. See the DAL1214 flight status page for this flight to view local times or setup timezone preferences in your user account.

Time Position Orientation Groundspeed Altitude Reporting Facility
EST Latitude Longitude Course Direction KTS MPH feet Rate Location/Type
08:10AM 41.3153 -95.9117 47° Northeast 177 204 1,600  Level Minneapolis Center
08:11AM 41.3556 -95.9208 350° North 209 241 2,900 1,440 Climbing Minneapolis Center
08:11AM 41.3733 -95.9094 26° Northeast 234 269 3,200 1,860 Climbing Minneapolis Center
08:12AM 41.4269 -95.8425 43° Northeast 258 297 5,500 2,340 Climbing Minneapolis Center
08:13AM 41.6219 -95.6701 37° Northeast  Level Estimated
08:13AM 41.4844 -95.7667 45° Northeast 275 316 8,100  Level Minneapolis Center
08:14AM 41.7281 -95.5949 37° Northeast  Level Estimated
08:14AM 41.5472 -95.6889 43° Northeast 292 336 10,400  Level Minneapolis Center
08:15AM 41.8342 -95.5195 47° Northeast  Level Estimated
08:15AM 41.6164 -95.6019 43° Northeast 316 364 11,800  Level Minneapolis Center
08:16AM 41.7158 -95.4731 44° Northeast 401 461 14,200 2,460 Climbing Minneapolis Center
08:17AM 41.7994 -95.3650 44° Northeast 416 479 16,900 3,000 Climbing Minneapolis Center
08:18AM 41.8794 -95.2617 44° Northeast 406 467 20,400 2,460 Climbing Minneapolis Center
08:19AM 41.9614 -95.1550 44° Northeast 408 470 22,000 1,440 Climbing Minneapolis Center
08:20AM 42.0456 -95.0444 44° Northeast 419 482 23,400 1,200 Climbing Minneapolis Center
08:21AM 42.1336 -94.9283 44° Northeast 437 503 24,500 840 Climbing Minneapolis Center
08:22AM 42.2289 -94.8053 44° Northeast 466 536 25,200 780 Climbing Minneapolis Center
08:23AM 42.3272 -94.6742 45° Northeast 491 565 26,100 1,380 Climbing Minneapolis Center
08:24AM 42.4261 -94.5411 45° Northeast 499 574 28,100 1,380 Climbing Minneapolis Center
08:25AM 42.5214 -94.4094 46° Northeast 486 559 29,000 420 Climbing Minneapolis Center
08:26AM 42.6386 -94.2575 44° Northeast 488 562 29,000  Level Minneapolis Center
08:27AM 42.7461 -94.1453 37° Northeast 489 563 29,000  Level Minneapolis Center
08:28AM 42.8475 -94.0317 39° Northeast 480 552 29,000  Level Minneapolis Center
08:29AM 42.9506 -93.9167 39° Northeast 480 552 29,000  Level Minneapolis Center
08:30AM 43.0558 -93.8031 38° Northeast 483 556 29,000  Level Minneapolis Center
08:31AM 43.1633 -93.6978 36° Northeast 481 554 29,000  Level Minneapolis Center
08:32AM 43.2864 -93.6539 15° North 462 532 29,000 -300 Level Minneapolis Center
08:33AM 43.4081 -93.6325 North 448 516 28,400 -1,620 Descending Minneapolis Center
08:34AM 43.5494 -93.6039 North 450 518 25,800 -2,280 Descending Minneapolis Center
08:35AM 43.6711 -93.5786 North 447 514 23,700 -2,280 Descending Minneapolis Center
08:36AM 43.7878 -93.5556 North 429 494 21,200 -2,340 Descending Minneapolis Center
08:37AM 43.8994 -93.5322 North 412 474 19,000 -2,640 Descending Minneapolis Center
08:39AM 44.0261 -93.5056 North 388 447 15,900 -2,760 Descending Minneapolis Center
08:40AM 44.1319 -93.4831 North 385 443 13,400 -2,340 Descending Minneapolis Center
08:41AM 44.2372 -93.4583 10° North 386 444 11,100 -1,200 Descending Minneapolis Center
08:42AM 44.3308 -93.3922 27° Northeast 378 435 11,000 -60 Descending Minneapolis Center
08:43AM 44.4217 -93.3297 26° Northeast 368 423 11,000  Level Minneapolis Center
08:44AM 44.5103 -93.2672 27° Northeast 360 414 11,000 -300 Level Minneapolis Center
08:45AM 44.5989 -93.2056 26° Northeast 359 413 10,400 -420 Descending Minneapolis Center
08:46AM 44.6839 -93.2167 355° North 304 350 10,200 -1,020 Descending Minneapolis Center
08:47AM 44.7592 -93.2631 336° Northwest 282 325 8,400 -1,320 Descending Minneapolis Center
08:48AM 44.8222 -93.3222 326° Northwest 271 312 7,500 -1,200 Descending Minneapolis Center
08:49AM 44.8664 -93.4067 306° West 269 310 6,000 -1,020 Descending Minneapolis Center
08:50AM 44.9206 -93.5106 306° West 273 314 5,500 -540 Descending Minneapolis Center
08:51AM 44.9778 -93.5525 333° Northwest 255 293 5,000 -300 Descending Minneapolis Center
08:52AM 44.9953 -93.4811 71° East 201 231 4,900 -540 Descending Minneapolis Center
08:53AM 44.9678 -93.4189 122° Southeast 184 212 3,900 -900 Descending Minneapolis Center
08:54AM 44.9458 -93.3683 122° Southeast 155 178 3,100 -780 Descending Minneapolis Center
08:55AM 44.9269 -93.3242 121° Southeast 135 155 2,400 -780 Descending Minneapolis Center
08:56AM 44.9089 -93.2822 121° Southeast 125 144 1,600 -840 Descending Minneapolis Center